Terminal Aerodrome Forecast
Issued by NWS

Home | Current Version | Previous Version | Text Only | Print | Product List | Glossary On
Versions: 1 2 3 4 5 6 7 8 9 10 11 12 13
000
FTUS42 KGSP 291735
TAFHKY
TAF
KHKY 291735Z 2918/3018 35006KT P6SM VCSH OVC070
     FM300300 02004KT P6SM OVC070 PROB30 3006/3010 4SM -SHRA OVC025=

USA.gov is the U.S. government's official web portal to all federal, state and local government web resources and services.